sensor_id;sensor_type;location;lat;lon;timestamp;P1;durP1;ratioP1;P2;durP2;ratioP2
10947;SDS011;5526;42.070;24.752;2023-02-13T00:00:49;13.73;;;12.18;;
10947;SDS011;5526;42.070;24.752;2023-02-13T00:03:17;14.38;;;12.25;;
10947;SDS011;5526;42.070;24.752;2023-02-13T00:05:45;15.10;;;12.50;;
10947;SDS011;5526;42.070;24.752;2023-02-13T00:08:12;13.90;;;12.40;;
10947;SDS011;5526;42.070;24.752;2023-02-13T00:10:39;13.52;;;12.13;;
10947;SDS011;5526;42.070;24.752;2023-02-13T00:13:06;13.10;;;11.70;;
10947;SDS011;5526;42.070;24.752;2023-02-13T00:15:33;13.35;;;11.57;;
10947;SDS011;5526;42.070;24.752;2023-02-13T00:18:00;12.90;;;11.50;;
10947;SDS011;5526;42.070;24.752;2023-02-13T00:20:27;12.18;;;10.95;;
10947;SDS011;5526;42.070;24.752;2023-02-13T00:22:56;12.38;;;11.07;;
10947;SDS011;5526;42.070;24.752;2023-02-13T00:25:23;13.43;;;11.93;;
10947;SDS011;5526;42.070;24.752;2023-02-13T00:27:50;13.15;;;11.75;;
10947;SDS011;5526;42.070;24.752;2023-02-13T00:30:18;16.30;;;12.30;;
10947;SDS011;5526;42.070;24.752;2023-02-13T00:32:46;13.77;;;12.38;;
10947;SDS011;5526;42.070;24.752;2023-02-13T00:35:13;13.25;;;11.80;;
10947;SDS011;5526;42.070;24.752;2023-02-13T00:37:40;14.38;;;12.32;;
10947;SDS011;5526;42.070;24.752;2023-02-13T00:40:09;13.00;;;11.48;;
10947;SDS011;5526;42.070;24.752;2023-02-13T00:42:36;14.77;;;11.88;;
10947;SDS011;5526;42.070;24.752;2023-02-13T00:45:04;15.32;;;12.30;;
10947;SDS011;5526;42.070;24.752;2023-02-13T00:47:31;14.43;;;12.07;;
10947;SDS011;5526;42.070;24.752;2023-02-13T00:49:58;13.43;;;11.55;;
10947;SDS011;5526;42.070;24.752;2023-02-13T00:52:25;12.02;;;10.73;;
10947;SDS011;5526;42.070;24.752;2023-02-13T00:54:52;11.65;;;10.25;;
10947;SDS011;5526;42.070;24.752;2023-02-13T00:57:20;10.90;;;9.80;;
10947;SDS011;5526;42.070;24.752;2023-02-13T00:59:47;11.90;;;10.23;;
10947;SDS011;5526;42.070;24.752;2023-02-13T01:02:14;11.82;;;10.27;;
10947;SDS011;5526;42.070;24.752;2023-02-13T01:04:41;11.15;;;10.05;;
10947;SDS011;5526;42.070;24.752;2023-02-13T01:07:08;10.75;;;9.30;;
10947;SDS011;5526;42.070;24.752;2023-02-13T01:09:35;10.70;;;9.38;;
10947;SDS011;5526;42.070;24.752;2023-02-13T01:12:02;11.13;;;9.65;;
10947;SDS011;5526;42.070;24.752;2023-02-13T01:14:30;10.80;;;9.70;;
10947;SDS011;5526;42.070;24.752;2023-02-13T01:16:57;9.43;;;8.15;;
10947;SDS011;5526;42.070;24.752;2023-02-13T01:19:24;10.00;;;9.00;;
10947;SDS011;5526;42.070;24.752;2023-02-13T01:21:51;9.30;;;8.35;;
10947;SDS011;5526;42.070;24.752;2023-02-13T01:24:18;9.40;;;8.40;;
10947;SDS011;5526;42.070;24.752;2023-02-13T01:26:45;9.48;;;8.43;;
10947;SDS011;5526;42.070;24.752;2023-02-13T01:29:12;10.13;;;8.55;;
10947;SDS011;5526;42.070;24.752;2023-02-13T01:31:41;9.70;;;8.70;;
10947;SDS011;5526;42.070;24.752;2023-02-13T01:34:08;9.77;;;8.77;;
10947;SDS011;5526;42.070;24.752;2023-02-13T01:36:35;9.50;;;8.50;;
10947;SDS011;5526;42.070;24.752;2023-02-13T01:39:02;12.48;;;11.23;;
10947;SDS011;5526;42.070;24.752;2023-02-13T01:41:29;15.05;;;13.13;;
10947;SDS011;5526;42.070;24.752;2023-02-13T01:43:57;13.25;;;11.95;;
10947;SDS011;5526;42.070;24.752;2023-02-13T01:46:26;14.18;;;12.68;;
10947;SDS011;5526;42.070;24.752;2023-02-13T01:48:59;16.63;;;14.77;;
10947;SDS011;5526;42.070;24.752;2023-02-13T01:51:31;17.58;;;15.70;;
10947;SDS011;5526;42.070;24.752;2023-02-13T01:54:01;18.25;;;16.35;;
10947;SDS011;5526;42.070;24.752;2023-02-13T01:56:33;20.65;;;18.02;;
10947;SDS011;5526;42.070;24.752;2023-02-13T01:59:04;20.80;;;18.20;;
10947;SDS011;5526;42.070;24.752;2023-02-13T02:01:35;22.88;;;19.52;;
10947;SDS011;5526;42.070;24.752;2023-02-13T02:04:06;25.35;;;21.85;;
10947;SDS011;5526;42.070;24.752;2023-02-13T02:06:38;25.83;;;21.95;;
10947;SDS011;5526;42.070;24.752;2023-02-13T02:09:09;28.50;;;22.40;;
10947;SDS011;5526;42.070;24.752;2023-02-13T02:11:43;27.48;;;22.75;;
10947;SDS011;5526;42.070;24.752;2023-02-13T02:14:17;26.88;;;22.92;;
10947;SDS011;5526;42.070;24.752;2023-02-13T02:16:45;29.92;;;23.83;;
10947;SDS011;5526;42.070;24.752;2023-02-13T02:19:15;30.55;;;24.17;;
10947;SDS011;5526;42.070;24.752;2023-02-13T02:21:59;28.25;;;24.48;;
10947;SDS011;5526;42.070;24.752;2023-02-13T02:31:03;36.58;;;29.15;;
10947;SDS011;5526;42.070;24.752;2023-02-13T02:33:55;44.58;;;35.28;;
10947;SDS011;5526;42.070;24.752;2023-02-13T02:36:36;40.38;;;32.15;;
10947;SDS011;5526;42.070;24.752;2023-02-13T02:39:18;44.28;;;34.42;;
10947;SDS011;5526;42.070;24.752;2023-02-13T02:41:57;41.75;;;34.70;;
10947;SDS011;5526;42.070;24.752;2023-02-13T02:44:35;46.83;;;37.33;;
10947;SDS011;5526;42.070;24.752;2023-02-13T02:47:10;46.67;;;36.42;;
10947;SDS011;5526;42.070;24.752;2023-02-13T02:50:22;45.80;;;35.58;;
10947;SDS011;5526;42.070;24.752;2023-02-13T02:53:02;41.85;;;33.33;;
10947;SDS011;5526;42.070;24.752;2023-02-13T02:55:35;42.55;;;33.78;;
10947;SDS011;5526;42.070;24.752;2023-02-13T02:58:08;50.35;;;35.85;;
10947;SDS011;5526;42.070;24.752;2023-02-13T03:00:56;49.67;;;35.80;;
10947;SDS011;5526;42.070;24.752;2023-02-13T03:03:44;53.45;;;37.38;;
10947;SDS011;5526;42.070;24.752;2023-02-13T03:06:32;57.63;;;39.35;;
10947;SDS011;5526;42.070;24.752;2023-02-13T03:09:05;55.97;;;37.88;;
10947;SDS011;5526;42.070;24.752;2023-02-13T03:11:59;52.20;;;35.15;;
10947;SDS011;5526;42.070;24.752;2023-02-13T03:15:00;47.88;;;35.15;;
10947;SDS011;5526;42.070;24.752;2023-02-13T03:17:27;49.47;;;36.03;;
10947;SDS011;5526;42.070;24.752;2023-02-13T03:20:13;45.05;;;32.70;;
10947;SDS011;5526;42.070;24.752;2023-02-13T03:23:19;42.33;;;32.80;;
10947;SDS011;5526;42.070;24.752;2023-02-13T03:25:56;43.00;;;33.33;;
10947;SDS011;5526;42.070;24.752;2023-02-13T03:28:40;51.22;;;35.42;;
10947;SDS011;5526;42.070;24.752;2023-02-13T03:31:31;53.00;;;36.80;;
10947;SDS011;5526;42.070;24.752;2023-02-13T03:34:05;48.45;;;34.08;;
10947;SDS011;5526;42.070;24.752;2023-02-13T03:36:40;47.05;;;33.72;;
10947;SDS011;5526;42.070;24.752;2023-02-13T03:39:33;43.70;;;33.30;;
10947;SDS011;5526;42.070;24.752;2023-02-13T03:42:08;43.30;;;32.70;;
10947;SDS011;5526;42.070;24.752;2023-02-13T03:44:42;41.75;;;31.63;;
10947;SDS011;5526;42.070;24.752;2023-02-13T03:47:34;42.75;;;30.00;;
10947;SDS011;5526;42.070;24.752;2023-02-13T03:50:02;43.55;;;32.13;;
10947;SDS011;5526;42.070;24.752;2023-02-13T03:52:31;41.50;;;32.17;;
10947;SDS011;5526;42.070;24.752;2023-02-13T03:55:04;45.80;;;35.65;;
10947;SDS011;5526;42.070;24.752;2023-02-13T03:57:52;45.72;;;33.95;;
10947;SDS011;5526;42.070;24.752;2023-02-13T04:00:42;40.92;;;31.48;;
10947;SDS011;5526;42.070;24.752;2023-02-13T04:03:12;41.60;;;32.05;;
10947;SDS011;5526;42.070;24.752;2023-02-13T04:05:43;38.35;;;29.40;;
10947;SDS011;5526;42.070;24.752;2023-02-13T04:08:15;31.58;;;25.85;;
10947;SDS011;5526;42.070;24.752;2023-02-13T04:10:45;28.92;;;23.83;;
10947;SDS011;5526;42.070;24.752;2023-02-13T04:13:17;23.70;;;20.05;;
10947;SDS011;5526;42.070;24.752;2023-02-13T04:15:51;20.83;;;17.75;;
10947;SDS011;5526;42.070;24.752;2023-02-13T04:18:22;19.05;;;16.67;;
10947;SDS011;5526;42.070;24.752;2023-02-13T04:20:52;19.80;;;17.02;;
10947;SDS011;5526;42.070;24.752;2023-02-13T04:23:19;18.50;;;16.00;;
10947;SDS011;5526;42.070;24.752;2023-02-13T04:25:48;16.83;;;15.02;;
10947;SDS011;5526;42.070;24.752;2023-02-13T04:28:17;18.80;;;15.25;;
10947;SDS011;5526;42.070;24.752;2023-02-13T04:30:44;18.80;;;15.63;;
10947;SDS011;5526;42.070;24.752;2023-02-13T04:33:12;18.60;;;15.35;;
10947;SDS011;5526;42.070;24.752;2023-02-13T04:35:39;16.13;;;14.32;;
10947;SDS011;5526;42.070;24.752;2023-02-13T04:38:06;18.70;;;15.75;;
10947;SDS011;5526;42.070;24.752;2023-02-13T04:40:33;17.75;;;14.18;;
10947;SDS011;5526;42.070;24.752;2023-02-13T04:43:01;15.90;;;13.65;;
10947;SDS011;5526;42.070;24.752;2023-02-13T04:45:28;37.20;;;25.45;;
10947;SDS011;5526;42.070;24.752;2023-02-13T04:47:55;45.20;;;31.20;;
10947;SDS011;5526;42.070;24.752;2023-02-13T04:50:23;40.72;;;28.85;;
10947;SDS011;5526;42.070;24.752;2023-02-13T04:52:51;37.95;;;28.02;;
10947;SDS011;5526;42.070;24.752;2023-02-13T04:55:19;41.70;;;29.10;;
10947;SDS011;5526;42.070;24.752;2023-02-13T04:57:46;48.03;;;34.30;;
10947;SDS011;5526;42.070;24.752;2023-02-13T05:00:15;48.72;;;34.17;;
10947;SDS011;5526;42.070;24.752;2023-02-13T05:02:42;48.72;;;34.80;;
10947;SDS011;5526;42.070;24.752;2023-02-13T05:05:09;49.70;;;35.47;;
10947;SDS011;5526;42.070;24.752;2023-02-13T05:07:36;49.80;;;35.83;;
10947;SDS011;5526;42.070;24.752;2023-02-13T05:10:04;44.38;;;33.70;;
10947;SDS011;5526;42.070;24.752;2023-02-13T05:12:31;45.75;;;34.47;;
10947;SDS011;5526;42.070;24.752;2023-02-13T05:14:58;46.45;;;35.08;;
10947;SDS011;5526;42.070;24.752;2023-02-13T05:17:26;45.65;;;35.03;;
10947;SDS011;5526;42.070;24.752;2023-02-13T05:19:53;46.05;;;33.67;;
10947;SDS011;5526;42.070;24.752;2023-02-13T05:22:20;41.75;;;33.22;;
10947;SDS011;5526;42.070;24.752;2023-02-13T05:25:05;44.65;;;33.38;;
10947;SDS011;5526;42.070;24.752;2023-02-13T05:27:32;42.75;;;32.67;;
10947;SDS011;5526;42.070;24.752;2023-02-13T05:29:59;43.70;;;34.22;;
10947;SDS011;5526;42.070;24.752;2023-02-13T05:32:28;44.20;;;34.92;;
10947;SDS011;5526;42.070;24.752;2023-02-13T05:34:55;43.17;;;35.13;;
10947;SDS011;5526;42.070;24.752;2023-02-13T05:37:22;41.38;;;33.08;;
10947;SDS011;5526;42.070;24.752;2023-02-13T05:39:49;40.30;;;32.17;;
10947;SDS011;5526;42.070;24.752;2023-02-13T05:42:16;38.53;;;30.40;;
10947;SDS011;5526;42.070;24.752;2023-02-13T05:44:43;40.33;;;30.65;;
10947;SDS011;5526;42.070;24.752;2023-02-13T05:47:09;38.10;;;29.13;;
10947;SDS011;5526;42.070;24.752;2023-02-13T05:49:38;34.97;;;28.80;;
10947;SDS011;5526;42.070;24.752;2023-02-13T05:52:05;37.13;;;28.23;;
10947;SDS011;5526;42.070;24.752;2023-02-13T05:54:32;34.30;;;28.25;;
10947;SDS011;5526;42.070;24.752;2023-02-13T05:56:59;31.30;;;26.17;;
10947;SDS011;5526;42.070;24.752;2023-02-13T05:59:26;30.63;;;26.10;;
10947;SDS011;5526;42.070;24.752;2023-02-13T06:01:53;32.78;;;27.25;;
10947;SDS011;5526;42.070;24.752;2023-02-13T06:04:20;34.22;;;28.02;;
10947;SDS011;5526;42.070;24.752;2023-02-13T06:06:48;31.95;;;27.30;;
10947;SDS011;5526;42.070;24.752;2023-02-13T06:09:15;34.53;;;27.85;;
10947;SDS011;5526;42.070;24.752;2023-02-13T06:11:42;34.47;;;28.33;;
10947;SDS011;5526;42.070;24.752;2023-02-13T06:14:09;39.47;;;28.85;;
10947;SDS011;5526;42.070;24.752;2023-02-13T06:16:38;38.75;;;29.65;;
10947;SDS011;5526;42.070;24.752;2023-02-13T06:19:05;33.38;;;28.73;;
10947;SDS011;5526;42.070;24.752;2023-02-13T06:21:32;39.78;;;30.83;;
10947;SDS011;5526;42.070;24.752;2023-02-13T06:24:04;43.65;;;34.00;;
10947;SDS011;5526;42.070;24.752;2023-02-13T06:26:32;44.67;;;34.92;;
10947;SDS011;5526;42.070;24.752;2023-02-13T06:28:59;45.67;;;34.80;;
10947;SDS011;5526;42.070;24.752;2023-02-13T06:31:26;43.42;;;34.78;;
10947;SDS011;5526;42.070;24.752;2023-02-13T06:33:53;43.50;;;34.35;;
10947;SDS011;5526;42.070;24.752;2023-02-13T06:36:20;33.85;;;28.25;;
10947;SDS011;5526;42.070;24.752;2023-02-13T06:38:47;34.42;;;26.83;;
10947;SDS011;5526;42.070;24.752;2023-02-13T06:41:15;33.60;;;26.60;;
10947;SDS011;5526;42.070;24.752;2023-02-13T06:43:43;31.98;;;26.05;;
10947;SDS011;5526;42.070;24.752;2023-02-13T06:46:10;32.35;;;26.45;;
10947;SDS011;5526;42.070;24.752;2023-02-13T06:48:37;33.15;;;26.15;;
10947;SDS011;5526;42.070;24.752;2023-02-13T06:51:04;31.42;;;24.95;;
10947;SDS011;5526;42.070;24.752;2023-02-13T06:53:31;33.08;;;26.42;;
10947;SDS011;5526;42.070;24.752;2023-02-13T06:55:58;32.47;;;25.92;;
10947;SDS011;5526;42.070;24.752;2023-02-13T06:58:31;31.63;;;25.88;;
10947;SDS011;5526;42.070;24.752;2023-02-13T07:00:59;37.67;;;26.40;;
10947;SDS011;5526;42.070;24.752;2023-02-13T07:03:26;33.67;;;27.38;;
10947;SDS011;5526;42.070;24.752;2023-02-13T07:05:53;32.35;;;26.33;;
10947;SDS011;5526;42.070;24.752;2023-02-13T07:08:20;32.03;;;25.90;;
10947;SDS011;5526;42.070;24.752;2023-02-13T07:10:48;33.47;;;26.52;;
10947;SDS011;5526;42.070;24.752;2023-02-13T07:13:15;34.30;;;27.08;;
10947;SDS011;5526;42.070;24.752;2023-02-13T07:15:43;35.38;;;26.42;;
10947;SDS011;5526;42.070;24.752;2023-02-13T07:18:10;35.35;;;28.48;;
10947;SDS011;5526;42.070;24.752;2023-02-13T07:20:37;33.45;;;25.52;;
10947;SDS011;5526;42.070;24.752;2023-02-13T07:23:04;33.97;;;26.52;;
10947;SDS011;5526;42.070;24.752;2023-02-13T07:25:32;29.35;;;24.08;;
10947;SDS011;5526;42.070;24.752;2023-02-13T07:27:59;33.05;;;24.92;;
10947;SDS011;5526;42.070;24.752;2023-02-13T07:30:28;29.52;;;23.23;;
10947;SDS011;5526;42.070;24.752;2023-02-13T07:32:58;30.38;;;22.45;;
10947;SDS011;5526;42.070;24.752;2023-02-13T07:35:26;27.08;;;20.20;;
10947;SDS011;5526;42.070;24.752;2023-02-13T07:37:53;26.67;;;20.98;;
10947;SDS011;5526;42.070;24.752;2023-02-13T07:40:20;26.60;;;21.10;;
10947;SDS011;5526;42.070;24.752;2023-02-13T07:42:47;27.75;;;21.55;;
10947;SDS011;5526;42.070;24.752;2023-02-13T07:45:14;29.98;;;21.60;;
10947;SDS011;5526;42.070;24.752;2023-02-13T07:47:41;30.85;;;22.42;;
10947;SDS011;5526;42.070;24.752;2023-02-13T07:50:10;30.85;;;21.75;;
10947;SDS011;5526;42.070;24.752;2023-02-13T07:52:38;30.35;;;22.10;;
10947;SDS011;5526;42.070;24.752;2023-02-13T07:55:05;30.15;;;21.83;;
10947;SDS011;5526;42.070;24.752;2023-02-13T07:57:33;28.85;;;21.98;;
10947;SDS011;5526;42.070;24.752;2023-02-13T08:00:00;28.15;;;21.48;;
10947;SDS011;5526;42.070;24.752;2023-02-13T08:02:27;30.92;;;21.95;;
10947;SDS011;5526;42.070;24.752;2023-02-13T08:04:54;32.07;;;26.10;;
10947;SDS011;5526;42.070;24.752;2023-02-13T08:07:23;29.33;;;23.90;;
10947;SDS011;5526;42.070;24.752;2023-02-13T08:09:50;29.92;;;23.30;;
10947;SDS011;5526;42.070;24.752;2023-02-13T08:12:34;28.25;;;22.40;;
10947;SDS011;5526;42.070;24.752;2023-02-13T08:15:02;29.05;;;21.08;;
10947;SDS011;5526;42.070;24.752;2023-02-13T08:17:30;29.77;;;21.02;;
10947;SDS011;5526;42.070;24.752;2023-02-13T08:19:57;28.48;;;21.33;;
10947;SDS011;5526;42.070;24.752;2023-02-13T08:22:25;27.48;;;21.10;;
10947;SDS011;5526;42.070;24.752;2023-02-13T08:24:52;28.30;;;21.20;;
10947;SDS011;5526;42.070;24.752;2023-02-13T08:27:19;26.70;;;21.95;;
10947;SDS011;5526;42.070;24.752;2023-02-13T08:29:47;27.80;;;21.30;;
10947;SDS011;5526;42.070;24.752;2023-02-13T08:32:15;28.73;;;23.67;;
10947;SDS011;5526;42.070;24.752;2023-02-13T08:34:42;28.50;;;24.25;;
10947;SDS011;5526;42.070;24.752;2023-02-13T08:37:09;27.83;;;23.08;;
10947;SDS011;5526;42.070;24.752;2023-02-13T08:39:37;27.75;;;23.05;;
10947;SDS011;5526;42.070;24.752;2023-02-13T08:42:04;30.85;;;24.00;;
10947;SDS011;5526;42.070;24.752;2023-02-13T08:44:31;27.77;;;22.13;;
10947;SDS011;5526;42.070;24.752;2023-02-13T08:46:58;32.05;;;24.90;;
10947;SDS011;5526;42.070;24.752;2023-02-13T08:49:28;30.63;;;24.42;;
10947;SDS011;5526;42.070;24.752;2023-02-13T08:51:55;28.45;;;23.27;;
10947;SDS011;5526;42.070;24.752;2023-02-13T08:54:22;33.20;;;26.17;;
10947;SDS011;5526;42.070;24.752;2023-02-13T08:56:50;32.35;;;24.85;;
10947;SDS011;5526;42.070;24.752;2023-02-13T08:59:17;29.13;;;24.60;;
10947;SDS011;5526;42.070;24.752;2023-02-13T09:01:44;31.45;;;26.17;;
10947;SDS011;5526;42.070;24.752;2023-02-13T09:04:11;33.63;;;27.58;;
10947;SDS011;5526;42.070;24.752;2023-02-13T09:06:40;36.10;;;26.83;;
10947;SDS011;5526;42.070;24.752;2023-02-13T09:09:07;34.42;;;26.80;;
10947;SDS011;5526;42.070;24.752;2023-02-13T09:11:34;36.75;;;27.35;;
10947;SDS011;5526;42.070;24.752;2023-02-13T09:14:03;35.17;;;26.63;;
10947;SDS011;5526;42.070;24.752;2023-02-13T09:16:30;35.30;;;27.25;;
10947;SDS011;5526;42.070;24.752;2023-02-13T09:18:57;37.55;;;28.17;;
10947;SDS011;5526;42.070;24.752;2023-02-13T09:21:24;36.53;;;28.27;;
10947;SDS011;5526;42.070;24.752;2023-02-13T09:23:50;38.88;;;28.92;;
10947;SDS011;5526;42.070;24.752;2023-02-13T09:26:19;38.75;;;33.30;;
10947;SDS011;5526;42.070;24.752;2023-02-13T09:28:46;36.65;;;29.30;;
10947;SDS011;5526;42.070;24.752;2023-02-13T09:31:15;35.53;;;28.60;;
10947;SDS011;5526;42.070;24.752;2023-02-13T09:33:44;38.78;;;30.50;;
10947;SDS011;5526;42.070;24.752;2023-02-13T09:36:12;36.83;;;29.92;;
10947;SDS011;5526;42.070;24.752;2023-02-13T09:38:43;35.45;;;29.83;;
10947;SDS011;5526;42.070;24.752;2023-02-13T09:41:11;41.63;;;31.88;;
10947;SDS011;5526;42.070;24.752;2023-02-13T09:43:42;41.30;;;32.17;;
10947;SDS011;5526;42.070;24.752;2023-02-13T09:46:12;41.45;;;32.35;;
10947;SDS011;5526;42.070;24.752;2023-02-13T09:48:45;42.58;;;33.60;;
10947;SDS011;5526;42.070;24.752;2023-02-13T09:51:14;39.00;;;31.40;;
10947;SDS011;5526;42.070;24.752;2023-02-13T09:53:45;41.42;;;32.58;;
10947;SDS011;5526;42.070;24.752;2023-02-13T09:56:20;36.03;;;29.92;;
10947;SDS011;5526;42.070;24.752;2023-02-13T09:58:56;39.90;;;35.58;;
10947;SDS011;5526;42.070;24.752;2023-02-13T10:01:29;36.50;;;30.85;;
10947;SDS011;5526;42.070;24.752;2023-02-13T10:04:06;36.10;;;29.45;;
10947;SDS011;5526;42.070;24.752;2023-02-13T10:06:44;34.95;;;28.55;;
10947;SDS011;5526;42.070;24.752;2023-02-13T10:09:20;38.53;;;34.42;;
10947;SDS011;5526;42.070;24.752;2023-02-13T10:12:16;37.70;;;30.77;;
10947;SDS011;5526;42.070;24.752;2023-02-13T10:15:05;37.22;;;28.88;;
10947;SDS011;5526;42.070;24.752;2023-02-13T10:17:43;36.65;;;27.40;;
10947;SDS011;5526;42.070;24.752;2023-02-13T10:20:18;33.95;;;28.45;;
10947;SDS011;5526;42.070;24.752;2023-02-13T10:22:52;36.50;;;30.02;;
10947;SDS011;5526;42.070;24.752;2023-02-13T10:25:24;38.35;;;31.73;;
10947;SDS011;5526;42.070;24.752;2023-02-13T10:27:53;34.72;;;30.02;;
10947;SDS011;5526;42.070;24.752;2023-02-13T10:30:25;39.78;;;28.88;;
10947;SDS011;5526;42.070;24.752;2023-02-13T10:32:59;35.25;;;27.80;;
10947;SDS011;5526;42.070;24.752;2023-02-13T10:35:46;35.60;;;29.17;;
10947;SDS011;5526;42.070;24.752;2023-02-13T10:38:18;38.67;;;29.98;;
10947;SDS011;5526;42.070;24.752;2023-02-13T10:40:51;37.10;;;30.17;;
10947;SDS011;5526;42.070;24.752;2023-02-13T10:43:29;32.08;;;27.77;;
10947;SDS011;5526;42.070;24.752;2023-02-13T10:46:06;33.90;;;29.90;;
10947;SDS011;5526;42.070;24.752;2023-02-13T10:48:44;34.25;;;28.73;;
10947;SDS011;5526;42.070;24.752;2023-02-13T10:51:23;33.78;;;28.30;;
10947;SDS011;5526;42.070;24.752;2023-02-13T10:56:49;38.00;;;29.23;;
10947;SDS011;5526;42.070;24.752;2023-02-13T10:59:26;32.35;;;28.13;;
10947;SDS011;5526;42.070;24.752;2023-02-13T11:02:02;32.28;;;27.63;;
10947;SDS011;5526;42.070;24.752;2023-02-13T11:04:45;33.95;;;27.00;;
10947;SDS011;5526;42.070;24.752;2023-02-13T11:07:13;31.65;;;26.20;;
10947;SDS011;5526;42.070;24.752;2023-02-13T11:09:44;32.42;;;27.60;;
10947;SDS011;5526;42.070;24.752;2023-02-13T11:12:22;34.40;;;28.85;;
10947;SDS011;5526;42.070;24.752;2023-02-13T11:14:54;33.47;;;25.88;;
10947;SDS011;5526;42.070;24.752;2023-02-13T11:17:23;35.85;;;26.92;;
10947;SDS011;5526;42.070;24.752;2023-02-13T11:19:54;30.65;;;25.85;;
10947;SDS011;5526;42.070;24.752;2023-02-13T11:22:27;32.10;;;26.45;;
10947;SDS011;5526;42.070;24.752;2023-02-13T11:24:57;30.75;;;25.65;;
10947;SDS011;5526;42.070;24.752;2023-02-13T11:27:28;30.75;;;25.05;;
10947;SDS011;5526;42.070;24.752;2023-02-13T11:29:58;26.75;;;22.63;;
10947;SDS011;5526;42.070;24.752;2023-02-13T11:32:27;27.77;;;21.00;;
10947;SDS011;5526;42.070;24.752;2023-02-13T11:34:56;25.42;;;18.48;;
10947;SDS011;5526;42.070;24.752;2023-02-13T11:37:27;22.15;;;18.00;;
10947;SDS011;5526;42.070;24.752;2023-02-13T11:39:56;23.02;;;19.58;;
10947;SDS011;5526;42.070;24.752;2023-02-13T11:42:25;25.38;;;18.38;;
10947;SDS011;5526;42.070;24.752;2023-02-13T11:44:56;21.60;;;17.85;;
10947;SDS011;5526;42.070;24.752;2023-02-13T11:47:33;18.42;;;16.40;;
10947;SDS011;5526;42.070;24.752;2023-02-13T11:50:04;18.95;;;16.65;;
10947;SDS011;5526;42.070;24.752;2023-02-13T11:52:44;19.33;;;16.10;;
10947;SDS011;5526;42.070;24.752;2023-02-13T11:55:23;17.15;;;14.07;;
10947;SDS011;5526;42.070;24.752;2023-02-13T11:57:57;18.65;;;13.93;;
10947;SDS011;5526;42.070;24.752;2023-02-13T12:00:27;15.40;;;12.70;;
10947;SDS011;5526;42.070;24.752;2023-02-13T12:03:01;18.17;;;14.27;;
10947;SDS011;5526;42.070;24.752;2023-02-13T12:06:00;16.52;;;14.73;;
10947;SDS011;5526;42.070;24.752;2023-02-13T12:08:30;13.75;;;12.13;;
10947;SDS011;5526;42.070;24.752;2023-02-13T12:10:58;15.07;;;13.55;;
10947;SDS011;5526;42.070;24.752;2023-02-13T12:13:30;12.90;;;11.38;;
10947;SDS011;5526;42.070;24.752;2023-02-13T12:16:02;12.35;;;10.15;;
10947;SDS011;5526;42.070;24.752;2023-02-13T12:18:33;14.90;;;11.75;;
10947;SDS011;5526;42.070;24.752;2023-02-13T12:21:08;13.95;;;10.52;;
10947;SDS011;5526;42.070;24.752;2023-02-13T12:23:51;10.73;;;8.45;;
10947;SDS011;5526;42.070;24.752;2023-02-13T12:26:25;10.98;;;9.80;;
10947;SDS011;5526;42.070;24.752;2023-02-13T12:29:05;9.52;;;8.63;;
10947;SDS011;5526;42.070;24.752;2023-02-13T12:31:53;9.57;;;8.55;;
10947;SDS011;5526;42.070;24.752;2023-02-13T12:34:37;11.00;;;9.95;;
10947;SDS011;5526;42.070;24.752;2023-02-13T12:37:36;7.70;;;6.85;;
10947;SDS011;5526;42.070;24.752;2023-02-13T12:43:15;11.93;;;9.25;;
10947;SDS011;5526;42.070;24.752;2023-02-13T12:46:15;12.90;;;10.27;;
10947;SDS011;5526;42.070;24.752;2023-02-13T12:48:55;11.32;;;9.88;;
10947;SDS011;5526;42.070;24.752;2023-02-13T12:51:33;9.77;;;8.77;;
10947;SDS011;5526;42.070;24.752;2023-02-13T12:54:17;10.38;;;8.68;;
10947;SDS011;5526;42.070;24.752;2023-02-13T12:57:08;11.25;;;8.70;;
10947;SDS011;5526;42.070;24.752;2023-02-13T12:59:56;10.82;;;8.65;;
10947;SDS011;5526;42.070;24.752;2023-02-13T13:02:46;10.02;;;8.73;;
10947;SDS011;5526;42.070;24.752;2023-02-13T13:05:24;11.50;;;10.30;;
10947;SDS011;5526;42.070;24.752;2023-02-13T13:10:53;10.85;;;8.82;;
10947;SDS011;5526;42.070;24.752;2023-02-13T13:13:35;10.63;;;8.90;;
10947;SDS011;5526;42.070;24.752;2023-02-13T13:16:11;8.98;;;8.07;;
10947;SDS011;5526;42.070;24.752;2023-02-13T13:18:49;11.32;;;8.38;;
10947;SDS011;5526;42.070;24.752;2023-02-13T13:21:25;8.68;;;7.75;;
10947;SDS011;5526;42.070;24.752;2023-02-13T13:23:59;9.77;;;8.15;;
10947;SDS011;5526;42.070;24.752;2023-02-13T13:26:34;8.50;;;7.45;;
10947;SDS011;5526;42.070;24.752;2023-02-13T13:29:04;8.90;;;8.00;;
10947;SDS011;5526;42.070;24.752;2023-02-13T13:31:36;9.27;;;8.18;;
10947;SDS011;5526;42.070;24.752;2023-02-13T13:34:05;9.88;;;8.77;;
10947;SDS011;5526;42.070;24.752;2023-02-13T13:36:40;13.40;;;10.00;;
10947;SDS011;5526;42.070;24.752;2023-02-13T13:39:15;10.23;;;9.00;;
10947;SDS011;5526;42.070;24.752;2023-02-13T13:41:53;9.90;;;8.93;;
10947;SDS011;5526;42.070;24.752;2023-02-13T13:47:33;9.82;;;8.90;;
10947;SDS011;5526;42.070;24.752;2023-02-13T13:50:20;12.52;;;9.23;;
10947;SDS011;5526;42.070;24.752;2023-02-13T13:53:05;8.95;;;8.07;;
10947;SDS011;5526;42.070;24.752;2023-02-13T13:58:41;8.88;;;7.78;;
10947;SDS011;5526;42.070;24.752;2023-02-13T14:01:19;9.07;;;7.93;;
10947;SDS011;5526;42.070;24.752;2023-02-13T14:03:50;8.70;;;6.95;;
10947;SDS011;5526;42.070;24.752;2023-02-13T14:06:19;8.77;;;7.57;;
10947;SDS011;5526;42.070;24.752;2023-02-13T14:11:39;10.60;;;8.90;;
10947;SDS011;5526;42.070;24.752;2023-02-13T14:17:16;9.38;;;7.57;;
10947;SDS011;5526;42.070;24.752;2023-02-13T14:19:58;9.15;;;7.93;;
10947;SDS011;5526;42.070;24.752;2023-02-13T14:22:26;8.98;;;8.10;;
10947;SDS011;5526;42.070;24.752;2023-02-13T14:25:00;9.68;;;8.23;;
10947;SDS011;5526;42.070;24.752;2023-02-13T14:27:29;8.18;;;7.38;;
10947;SDS011;5526;42.070;24.752;2023-02-13T14:29:58;8.82;;;7.68;;
10947;SDS011;5526;42.070;24.752;2023-02-13T14:32:28;8.55;;;7.47;;
10947;SDS011;5526;42.070;24.752;2023-02-13T14:34:58;9.15;;;7.80;;
10947;SDS011;5526;42.070;24.752;2023-02-13T14:37:28;9.90;;;7.97;;
10947;SDS011;5526;42.070;24.752;2023-02-13T14:40:11;10.98;;;9.02;;
10947;SDS011;5526;42.070;24.752;2023-02-13T14:42:54;9.20;;;8.30;;
10947;SDS011;5526;42.070;24.752;2023-02-13T14:45:24;10.07;;;7.47;;
10947;SDS011;5526;42.070;24.752;2023-02-13T14:47:58;9.10;;;8.20;;
10947;SDS011;5526;42.070;24.752;2023-02-13T14:50:45;9.05;;;8.15;;
10947;SDS011;5526;42.070;24.752;2023-02-13T14:53:17;8.82;;;7.38;;
10947;SDS011;5526;42.070;24.752;2023-02-13T14:55:50;9.88;;;8.00;;
10947;SDS011;5526;42.070;24.752;2023-02-13T14:58:22;8.43;;;7.57;;
10947;SDS011;5526;42.070;24.752;2023-02-13T15:00:55;10.07;;;7.38;;
10947;SDS011;5526;42.070;24.752;2023-02-13T15:03:28;9.65;;;7.97;;
10947;SDS011;5526;42.070;24.752;2023-02-13T15:06:02;11.23;;;8.30;;
10947;SDS011;5526;42.070;24.752;2023-02-13T15:08:37;10.18;;;7.50;;
10947;SDS011;5526;42.070;24.752;2023-02-13T15:11:10;12.57;;;8.57;;
10947;SDS011;5526;42.070;24.752;2023-02-13T15:14:13;13.10;;;8.95;;
10947;SDS011;5526;42.070;24.752;2023-02-13T15:16:45;13.43;;;10.27;;
10947;SDS011;5526;42.070;24.752;2023-02-13T15:19:16;15.60;;;10.00;;
10947;SDS011;5526;42.070;24.752;2023-02-13T15:21:49;12.45;;;9.48;;